Time;durP1;ratioP1;P1;durP2;ratioP2;P2;SDS_P1;SDS_P2;PMS_P1;PMS_P2;Temp;Humidity;BMP_temperature;BMP_pressure;BME280_temperature;BME280_humidity;BME280_pressure;Samples;Min_cycle;Max_cycle;Signal;HPM_P1;HPM_P2
2022/07/07 00:01:39;;;;;;;2.15;0.95;;;;;;;18.17;57.38;101424.75;5047133;28;20057;-68
2022/07/07 00:04:05;;;;;;;3.85;1.00;;;;;;;18.33;57.83;101435.94;5036308;28;20042;-68
2022/07/07 00:06:32;;;;;;;2.95;1.05;;;;;;;18.32;57.94;101431.59;5009368;28;20077;-68
2022/07/07 00:08:58;;;;;;;3.35;1.20;;;;;;;18.38;57.55;101430.28;5015958;28;20045;-69
2022/07/07 00:11:25;;;;;;;3.80;1.30;;;;;;;18.31;58.94;101429.91;5011029;28;20050;-69
2022/07/07 00:13:52;;;;;;;2.63;1.10;;;;;;;18.03;58.43;101427.56;5024937;28;20509;-69
2022/07/07 00:16:19;;;;;;;3.38;0.98;;;;;;;18.21;59.61;101420.91;5027738;28;20437;-69
2022/07/07 00:18:48;;;;;;;3.55;1.13;;;;;;;18.28;60.00;101421.31;5016203;28;20042;-69
2022/07/07 00:21:14;;;;;;;8.30;1.73;;;;;;;18.23;60.57;101432.25;5026141;28;20068;-68
2022/07/07 00:23:40;;;;;;;3.17;1.10;;;;;;;18.21;61.46;101426.22;5019517;28;20050;-68
2022/07/07 00:26:07;;;;;;;4.15;1.38;;;;;;;18.17;61.61;101426.56;5027557;28;20041;-68
2022/07/07 00:28:34;;;;;;;6.40;1.50;;;;;;;18.08;61.94;101422.75;5026682;28;20073;-68
2022/07/07 00:31:01;;;;;;;6.13;1.77;;;;;;;17.95;63.73;101428.09;5026626;28;20091;-68
2022/07/07 00:33:28;;;;;;;4.78;1.58;;;;;;;17.97;63.46;101430.63;5028499;28;20045;-68
2022/07/07 00:35:56;;;;;;;2.58;1.30;;;;;;;17.72;64.55;101425.38;5018180;28;20050;-68
2022/07/07 00:38:22;;;;;;;4.43;1.27;;;;;;;17.58;65.40;101415.75;5027129;28;20041;-67
2022/07/07 00:40:50;;;;;;;7.28;1.60;;;;;;;17.43;65.97;101408.81;5023788;28;20490;-67
2022/07/07 00:43:16;;;;;;;3.95;1.27;;;;;;;17.32;66.34;101406.94;5025204;28;20046;-67
2022/07/07 00:45:46;;;;;;;3.65;1.80;;;;;;;17.11;67.88;101405.72;5027540;28;20072;-68
2022/07/07 00:48:12;;;;;;;3.80;1.40;;;;;;;16.90;68.72;101408.03;5021417;28;20078;-68
2022/07/07 00:50:38;;;;;;;5.28;1.30;;;;;;;16.78;69.86;101400.91;5022589;28;20080;-67
2022/07/07 00:53:06;;;;;;;4.97;2.08;;;;;;;16.66;70.49;101393.81;5027330;28;20075;-67
2022/07/07 00:55:33;;;;;;;3.38;1.58;;;;;;;16.48;71.51;101381.75;5009545;28;20108;-68
2022/07/07 00:57:59;;;;;;;6.97;2.08;;;;;;;16.28;71.92;101382.22;5024762;28;20135;-68
2022/07/07 01:00:25;;;;;;;4.63;1.65;;;;;;;16.45;72.23;101380.13;5024889;28;20456;-69
2022/07/07 01:03:38;;;;;;;5.88;2.17;;;;;;;16.32;72.65;101368.69;5030832;28;20045;-69
2022/07/07 01:06:05;;;;;;;7.35;1.67;;;;;;;16.32;72.54;101360.75;5022086;28;20050;-69
2022/07/07 01:08:33;;;;;;;5.00;2.00;;;;;;;15.84;75.59;101362.13;5018348;28;20042;-68
2022/07/07 01:10:59;;;;;;;4.15;1.55;;;;;;;15.62;76.63;101355.63;5019464;28;20049;-68
2022/07/07 01:13:25;;;;;;;4.50;1.80;;;;;;;15.78;77.10;101351.09;5023801;28;20041;-67
2022/07/07 01:15:51;;;;;;;5.30;1.80;;;;;;;15.31;78.13;101346.94;5021714;28;20096;-67
2022/07/07 01:18:18;;;;;;;9.82;2.97;;;;;;;14.91;80.60;101342.38;5020685;28;20685;-67
2022/07/07 01:20:48;;;;;;;6.03;2.28;;;;;;;14.68;81.21;101332.31;5026041;28;20049;-67
2022/07/07 01:23:16;;;;;;;3.72;2.30;;;;;;;15.02;80.41;101337.28;5026326;28;20045;-67
2022/07/07 01:25:42;;;;;;;10.10;2.40;;;;;;;14.97;80.46;101327.00;5026177;28;20045;-67
2022/07/07 01:28:09;;;;;;;6.47;2.00;;;;;;;15.32;79.24;101322.22;5026375;28;20402;-67
2022/07/07 01:30:35;;;;;;;3.47;1.95;;;;;;;15.18;80.25;101318.72;5025235;28;20461;-67
2022/07/07 01:33:01;;;;;;;4.05;2.00;;;;;;;14.86;81.00;101323.31;5024978;28;20042;-67
2022/07/07 01:35:28;;;;;;;4.53;1.75;;;;;;;14.61;81.88;101319.50;5018946;28;20069;-67
2022/07/07 01:37:54;;;;;;;5.20;2.00;;;;;;;14.82;82.77;101327.09;5025055;28;20045;-67
2022/07/07 01:40:22;;;;;;;5.63;1.88;;;;;;;14.87;82.79;101317.09;5026246;28;20041;-67
2022/07/07 01:42:48;;;;;;;3.15;1.80;;;;;;;14.96;82.12;101309.47;5026003;28;20088;-67
2022/07/07 01:45:14;;;;;;;16.52;2.45;;;;;;;15.12;81.20;101304.09;5025371;28;20428;-67
2022/07/07 01:47:41;;;;;;;2.67;1.67;;;;;;;14.98;82.79;101307.59;5026189;28;20046;-67
2022/07/07 01:50:07;;;;;;;5.45;1.92;;;;;;;14.84;83.60;101310.22;5025535;28;20073;-67
2022/07/07 01:52:35;;;;;;;3.33;2.08;;;;;;;15.13;82.46;101302.31;5025432;28;20426;-67
2022/07/07 01:55:01;;;;;;;9.57;1.98;;;;;;;14.83;83.32;101302.38;5025914;28;20508;-67
2022/07/07 01:57:29;;;;;;;4.32;1.90;;;;;;;14.88;83.00;101290.59;5027252;28;20047;-67
2022/07/07 01:59:55;;;;;;;7.85;2.45;;;;;;;14.74;84.35;101290.59;5024642;28;20053;-67
2022/07/07 02:02:22;;;;;;;5.70;2.42;;;;;;;14.82;83.71;101284.84;5027884;28;20087;-67
2022/07/07 02:04:48;;;;;;;7.63;1.98;;;;;;;14.58;84.70;101288.03;5023201;28;20097;-67
2022/07/07 02:07:14;;;;;;;2.63;1.80;;;;;;;14.50;85.86;101289.41;5020943;28;20054;-66
2022/07/07 02:09:41;;;;;;;7.30;2.15;;;;;;;14.95;84.47;101293.72;5024539;28;20131;-66
2022/07/07 02:12:07;;;;;;;7.50;2.10;;;;;;;14.71;84.92;101279.38;5025626;28;20072;-67
2022/07/07 02:14:37;;;;;;;5.10;2.10;;;;;;;14.70;85.09;101282.94;5025774;28;20049;-67
2022/07/07 02:17:04;;;;;;;4.05;2.10;;;;;;;15.03;83.97;101279.13;5019273;28;20050;-67
2022/07/07 02:19:30;;;;;;;6.78;1.80;;;;;;;15.23;83.16;101269.94;5024001;28;20080;-67
2022/07/07 02:21:56;;;;;;;11.23;2.60;;;;;;;15.28;82.72;101280.22;5025852;28;20131;-67
2022/07/07 02:24:23;;;;;;;5.10;1.80;;;;;;;15.12;83.77;101282.97;5017129;28;20119;-67
2022/07/07 02:26:49;;;;;;;3.10;1.95;;;;;;;15.30;82.46;101281.00;5026947;28;20044;-66
2022/07/07 02:29:16;;;;;;;5.25;2.30;;;;;;;14.53;86.26;101279.53;5026011;28;20042;-67
2022/07/07 02:31:43;;;;;;;3.67;2.10;;;;;;;14.69;87.15;101275.97;5030080;28;20135;-67
2022/07/07 02:34:10;;;;;;;7.93;2.78;;;;;;;15.09;85.10;101277.88;5029589;28;20068;-67
2022/07/07 02:36:36;;;;;;;3.00;2.13;;;;;;;15.41;83.61;101278.53;5027684;28;20413;-67
2022/07/07 02:39:03;;;;;;;4.68;2.20;;;;;;;15.11;84.23;101270.72;5028828;28;20476;-67
2022/07/07 02:41:29;;;;;;;6.28;2.53;;;;;;;15.22;84.51;101275.34;5016721;28;20540;-66
2022/07/07 02:43:56;;;;;;;5.03;2.15;;;;;;;15.14;84.91;101274.94;5027911;28;20099;-67
2022/07/07 02:46:22;;;;;;;5.35;2.38;;;;;;;15.15;85.32;101276.66;5030291;28;20127;-67
2022/07/07 02:48:50;;;;;;;6.25;2.55;;;;;;;15.17;85.44;101274.75;5010228;28;20069;-66
2022/07/07 02:51:16;;;;;;;4.50;2.28;;;;;;;15.25;85.25;101275.13;5026360;28;20525;-66
2022/07/07 02:53:43;;;;;;;7.80;2.88;;;;;;;15.29;85.45;101268.72;5021620;28;20069;-66
2022/07/07 02:56:09;;;;;;;5.13;2.80;;;;;;;15.03;86.99;101259.78;5029384;28;20630;-66
2022/07/07 02:58:35;;;;;;;4.38;2.70;;;;;;;14.90;87.19;101264.09;5025754;28;20057;-66
2022/07/07 03:01:02;;;;;;;4.05;2.85;;;;;;;14.75;88.51;101255.31;5029342;28;20494;-66
2022/07/07 03:03:28;;;;;;;4.15;2.60;;;;;;;14.71;88.73;101255.63;5027409;28;20088;-66
2022/07/07 03:05:56;;;;;;;6.03;2.60;;;;;;;14.57;89.86;101249.38;5015243;28;20046;-66
2022/07/07 03:08:23;;;;;;;8.90;3.13;;;;;;;14.31;92.07;101250.03;5020261;28;20045;-66
2022/07/07 03:10:49;;;;;;;5.97;3.00;;;;;;;14.21;92.73;101245.41;5026489;28;20131;-67
2022/07/07 03:13:15;;;;;;;7.40;2.70;;;;;;;14.23;93.30;101240.91;5026658;28;20141;-67
2022/07/07 03:15:42;;;;;;;6.55;3.55;;;;;;;13.99;93.92;101235.25;5038262;28;20064;-67
2022/07/07 03:18:08;;;;;;;4.32;3.30;;;;;;;14.28;93.60;101231.75;5027944;28;20041;-67
2022/07/07 03:20:35;;;;;;;8.95;3.50;;;;;;;14.48;91.88;101239.38;5029468;28;20122;-67
2022/07/07 03:23:04;;;;;;;5.88;3.67;;;;;;;14.67;91.45;101236.44;5029053;28;20046;-67
2022/07/07 03:25:31;;;;;;;6.85;3.85;;;;;;;14.85;90.14;101229.22;5027893;28;20052;-67
2022/07/07 03:27:58;;;;;;;6.25;3.80;;;;;;;14.57;91.86;101233.53;5027243;28;20045;-66
2022/07/07 03:30:24;;;;;;;10.05;4.28;;;;;;;14.45;92.41;101225.50;5028169;28;20069;-66
2022/07/07 03:32:50;;;;;;;5.07;3.53;;;;;;;14.02;94.63;101220.09;5027289;28;20041;-67
2022/07/07 03:35:17;;;;;;;7.07;4.50;;;;;;;13.96;96.81;101222.25;5027474;28;20069;-67
2022/07/07 03:37:43;;;;;;;6.43;3.80;;;;;;;14.13;95.27;101214.19;5031834;28;20050;-67
2022/07/07 03:40:13;;;;;;;8.43;4.22;;;;;;;14.20;95.93;101212.88;5026254;28;20045;-67
2022/07/07 03:42:40;;;;;;;7.72;3.88;;;;;;;14.46;94.42;101203.44;5028153;28;20059;-67
2022/07/07 03:45:08;;;;;;;5.35;3.90;;;;;;;14.33;94.64;101205.13;5028428;28;20096;-67
2022/07/07 03:47:34;;;;;;;5.63;4.05;;;;;;;14.43;95.17;101198.38;5027883;28;20045;-67
2022/07/07 03:50:00;;;;;;;7.68;4.18;;;;;;;14.65;93.45;101205.81;5027710;28;20409;-67
2022/07/07 03:52:27;;;;;;;7.30;4.55;;;;;;;14.22;95.41;101204.91;5027357;28;20095;-67
2022/07/07 03:54:53;;;;;;;6.55;4.15;;;;;;;14.22;96.52;101200.47;5022063;28;20526;-67
2022/07/07 03:57:21;;;;;;;9.38;4.40;;;;;;;14.21;96.13;101197.91;5026152;28;20508;-67
2022/07/07 03:59:47;;;;;;;7.18;4.43;;;;;;;14.14;97.36;101192.16;5027570;28;20046;-67
2022/07/07 04:02:14;;;;;;;8.40;4.15;;;;;;;13.88;98.48;101187.56;5026759;28;20074;-66
2022/07/07 04:04:40;;;;;;;5.07;4.00;;;;;;;13.85;100.00;101185.97;5022441;28;20143;-68
2022/07/07 04:07:06;;;;;;;8.55;4.53;;;;;;;13.70;100.00;101184.22;5029235;28;20171;-67
2022/07/07 04:09:32;;;;;;;8.13;4.97;;;;;;;14.04;99.60;101180.47;5026353;28;20511;-66
2022/07/07 04:11:59;;;;;;;8.60;4.75;;;;;;;13.78;100.00;101171.44;5026672;28;20072;-66
2022/07/07 04:14:27;;;;;;;8.70;5.00;;;;;;;13.85;100.00;101175.44;5027744;28;20042;-67
2022/07/07 04:16:53;;;;;;;9.82;6.22;;;;;;;13.85;100.00;101170.16;5026582;28;20037;-67
2022/07/07 04:19:19;;;;;;;9.13;5.10;;;;;;;14.05;100.00;101168.97;5018399;28;20546;-66
2022/07/07 04:21:46;;;;;;;11.80;5.80;;;;;;;13.63;100.00;101169.69;5026280;28;20049;-67
2022/07/07 04:24:12;;;;;;;6.40;5.25;;;;;;;13.64;100.00;101169.59;5027516;28;20045;-68
2022/07/07 04:26:38;;;;;;;9.77;5.93;;;;;;;13.68;100.00;101167.63;5028513;28;20049;-67
2022/07/07 04:29:05;;;;;;;11.57;6.05;;;;;;;13.92;100.00;101160.09;5026271;28;20107;-66
2022/07/07 04:31:32;;;;;;;10.15;6.03;;;;;;;13.74;100.00;101166.44;5027322;28;20094;-67
2022/07/07 04:33:59;;;;;;;15.70;6.90;;;;;;;14.08;100.00;101167.00;5027232;28;20049;-68
2022/07/07 04:36:25;;;;;;;11.75;6.25;;;;;;;14.36;100.00;101165.38;5027137;28;20045;-68
2022/07/07 04:38:51;;;;;;;12.75;6.47;;;;;;;14.29;100.00;101156.97;5026105;28;20037;-68
2022/07/07 04:41:18;;;;;;;11.35;6.85;;;;;;;14.28;100.00;101157.91;5027181;28;20091;-68
2022/07/07 04:43:44;;;;;;;9.95;6.93;;;;;;;14.50;99.81;101152.19;5026586;28;20053;-67
2022/07/07 04:46:10;;;;;;;11.70;7.45;;;;;;;14.76;98.84;101154.06;5020375;28;20076;-67
2022/07/07 04:48:38;;;;;;;12.30;7.53;;;;;;;14.89;96.68;101148.88;5015331;28;20050;-67
2022/07/07 04:51:05;;;;;;;10.77;7.90;;;;;;;14.68;97.46;101147.56;5006253;28;20054;-67
2022/07/07 04:53:31;;;;;;;13.35;7.60;;;;;;;14.36;99.57;101142.50;5015318;28;20103;-67
2022/07/07 04:55:57;;;;;;;11.90;8.13;;;;;;;14.38;100.00;101145.88;5009792;28;20058;-66
2022/07/07 04:58:24;;;;;;;17.25;9.68;;;;;;;14.58;99.54;101140.22;5007409;28;20050;-66
2022/07/07 05:00:50;;;;;;;13.50;8.02;;;;;;;14.40;100.00;101137.88;5018845;28;20050;-67
2022/07/07 05:03:16;;;;;;;11.32;8.52;;;;;;;14.17;100.00;101147.16;5018056;28;20477;-69
2022/07/07 05:05:44;;;;;;;14.48;9.02;;;;;;;14.07;100.00;101140.72;5020023;28;20081;-68
2022/07/07 05:08:10;;;;;;;14.50;8.93;;;;;;;14.38;100.00;101142.38;5017447;28;20053;-67
2022/07/07 05:10:37;;;;;;;14.80;9.98;;;;;;;14.12;100.00;101143.91;5006589;28;20065;-67
2022/07/07 05:13:03;;;;;;;14.35;9.23;;;;;;;14.80;100.00;101138.88;5005448;28;20045;-67
2022/07/07 05:15:29;;;;;;;13.15;9.63;;;;;;;14.85;99.40;101139.47;5008287;28;20160;-68
2022/07/07 05:17:56;;;;;;;14.90;10.25;;;;;;;14.78;99.77;101132.88;5007174;28;20053;-67
2022/07/07 05:20:22;;;;;;;15.98;10.00;;;;;;;14.27;100.00;101139.50;5024840;28;20461;-67
2022/07/07 05:22:50;;;;;;;28.83;11.38;;;;;;;14.30;100.00;101142.81;5026930;28;20069;-67
2022/07/07 05:25:16;;;;;;;14.98;10.70;;;;;;;14.37;100.00;101136.28;5026371;28;20068;-67
2022/07/07 05:27:44;;;;;;;18.75;10.70;;;;;;;14.45;100.00;101138.44;5026050;28;20114;-67
2022/07/07 05:30:12;;;;;;;15.90;11.57;;;;;;;14.58;100.00;101127.03;5026496;28;20076;-67
2022/07/07 05:32:38;;;;;;;15.52;12.13;;;;;;;14.76;100.00;101126.81;5016620;28;20403;-67
2022/07/07 05:35:05;;;;;;;18.17;11.00;;;;;;;14.69;100.00;101131.66;5018038;28;20050;-67
2022/07/07 05:37:31;;;;;;;17.02;11.20;;;;;;;14.93;100.00;101123.94;5024367;28;20119;-69
2022/07/07 05:39:59;;;;;;;16.70;12.35;;;;;;;14.64;100.00;101131.06;5035948;28;20570;-69
2022/07/07 05:42:26;;;;;;;21.33;13.48;;;;;;;14.79;100.00;101122.19;5027100;28;20409;-69
2022/07/07 05:44:52;;;;;;;17.92;10.88;;;;;;;14.50;100.00;101121.38;5026354;28;20493;-69
2022/07/07 05:47:18;;;;;;;14.02;10.82;;;;;;;15.00;100.00;101125.28;5022423;28;20045;-68
2022/07/07 05:49:45;;;;;;;16.17;12.15;;;;;;;15.17;99.75;101122.41;5023920;28;20076;-68
2022/07/07 05:52:11;;;;;;;16.83;12.07;;;;;;;14.93;100.00;101118.69;5022653;28;20154;-68
2022/07/07 05:54:37;;;;;;;17.50;11.63;;;;;;;15.17;99.55;101117.13;5007007;28;20101;-68
2022/07/07 05:57:06;;;;;;;12.93;9.57;;;;;;;14.85;100.00;101118.34;5005721;28;20069;-68
2022/07/07 05:59:33;;;;;;;27.52;11.57;;;;;;;14.80;100.00;101118.63;5007162;28;20414;-68
2022/07/07 06:01:59;;;;;;;15.05;11.05;;;;;;;15.09;100.00;101119.41;5024331;28;20053;-69
2022/07/07 06:04:26;;;;;;;13.93;10.85;;;;;;;15.48;99.18;101114.16;5019709;28;20069;-69
2022/07/07 06:06:53;;;;;;;17.80;11.35;;;;;;;15.55;98.53;101118.13;5018154;28;20136;-69
2022/07/07 06:09:19;;;;;;;17.45;11.30;;;;;;;15.50;99.06;101114.94;5024677;28;20065;-69
2022/07/07 06:11:46;;;;;;;13.98;10.25;;;;;;;15.64;97.25;101115.81;5026059;28;20069;-68
2022/07/07 06:14:13;;;;;;;14.23;10.02;;;;;;;15.42;99.15;101119.84;5027098;28;20049;-68
2022/07/07 06:16:41;;;;;;;14.07;10.45;;;;;;;15.80;96.95;101119.13;5026412;28;20549;-68
2022/07/07 06:19:07;;;;;;;12.50;9.77;;;;;;;15.73;96.86;101129.28;5024669;28;20502;-69
2022/07/07 06:21:33;;;;;;;13.57;10.18;;;;;;;15.66;96.99;101116.56;5026117;28;20099;-69
2022/07/07 06:24:00;;;;;;;12.77;10.00;;;;;;;15.62;97.59;101118.56;5024950;28;20065;-69
2022/07/07 06:26:26;;;;;;;11.95;9.68;;;;;;;16.21;93.87;101122.47;5024763;28;20046;-69
2022/07/07 06:28:53;;;;;;;11.02;9.15;;;;;;;15.57;96.80;101112.72;5024912;28;20065;-69
2022/07/07 06:31:20;;;;;;;11.65;8.25;;;;;;;15.56;96.84;101113.69;5024072;28;20123;-70
2022/07/07 06:33:47;;;;;;;9.90;8.88;;;;;;;15.55;96.04;101118.13;5016192;28;20037;-70
2022/07/07 06:36:13;;;;;;;11.27;9.15;;;;;;;15.79;96.08;101123.56;5025353;28;20143;-69
2022/07/07 06:38:40;;;;;;;10.63;8.77;;;;;;;15.82;95.73;101119.88;5024931;28;20567;-69
2022/07/07 06:41:06;;;;;;;10.32;8.02;;;;;;;15.36;98.44;101119.41;5026456;28;20045;-69
2022/07/07 06:43:32;;;;;;;13.75;9.88;;;;;;;15.39;99.43;101113.91;5025668;28;20065;-69
2022/07/07 06:45:59;;;;;;;11.45;8.90;;;;;;;16.07;95.65;101106.69;5024480;28;20081;-69
2022/07/07 06:48:26;;;;;;;11.38;9.40;;;;;;;16.12;94.03;101112.50;5025721;28;20104;-70
2022/07/07 06:50:53;;;;;;;11.93;8.95;;;;;;;16.24;94.30;101110.81;5025228;28;20530;-70
2022/07/07 06:53:19;;;;;;;10.75;8.07;;;;;;;15.75;95.99;101111.50;5024687;28;20045;-68
2022/07/07 06:55:45;;;;;;;10.32;8.93;;;;;;;15.71;97.46;101106.53;5026276;28;20073;-67
2022/07/07 06:58:12;;;;;;;10.40;8.93;;;;;;;15.50;99.21;101109.66;5024496;28;20045;-67
2022/07/07 07:00:39;;;;;;;13.93;9.18;;;;;;;15.40;100.00;101105.06;5021597;28;20477;-67
2022/07/07 07:03:05;;;;;;;12.63;8.30;;;;;;;15.37;100.00;101103.44;5020715;28;20052;-67
2022/07/07 07:05:34;;;;;;;13.63;8.85;;;;;;;15.69;99.39;101113.72;5024270;28;20111;-67
2022/07/07 07:08:01;;;;;;;11.80;8.93;;;;;;;16.01;96.32;101115.03;5023839;28;20067;-68
2022/07/07 07:10:27;;;;;;;10.82;8.02;;;;;;;15.92;96.56;101103.28;5025335;28;20102;-68
2022/07/07 07:12:53;;;;;;;9.45;8.02;;;;;;;15.78;97.71;101102.53;5021789;28;20135;-68
2022/07/07 07:15:20;;;;;;;11.85;8.93;;;;;;;16.08;98.10;101100.44;5025233;28;20147;-69
2022/07/07 07:17:46;;;;;;;9.90;8.35;;;;;;;16.11;97.54;101109.97;5028658;28;20460;-68
2022/07/07 07:20:14;;;;;;;10.13;8.43;;;;;;;16.75;93.98;101093.94;5027884;28;20053;-68
2022/07/07 07:22:42;;;;;;;9.77;8.63;;;;;;;16.48;94.93;101099.34;5024588;28;20130;-68
2022/07/07 07:25:09;;;;;;;7.43;6.72;;;;;;;16.35;95.36;101098.53;5032605;28;20095;-68
2022/07/07 07:27:36;;;;;;;9.23;7.72;;;;;;;16.50;94.87;101100.09;5027493;28;20417;-68
2022/07/07 07:30:04;;;;;;;9.57;7.78;;;;;;;16.65;94.50;101100.00;5027776;28;20049;-69
2022/07/07 07:32:30;;;;;;;9.95;7.70;;;;;;;16.49;94.68;101102.84;5021161;28;20451;-69
2022/07/07 07:34:56;;;;;;;11.40;7.18;;;;;;;16.33;96.22;101104.88;5025942;28;20092;-68
2022/07/07 07:37:23;;;;;;;8.93;7.50;;;;;;;16.78;94.68;101100.78;5015466;28;20681;-68
2022/07/07 07:39:50;;;;;;;8.98;7.03;;;;;;;17.04;93.51;101107.72;5030009;28;20498;-68
2022/07/07 07:42:16;;;;;;;11.27;6.70;;;;;;;16.97;92.72;101094.06;5027946;28;20481;-69
2022/07/07 07:47:27;;;;;;;7.63;6.28;;;;;;;16.72;94.13;101096.81;5027823;28;20076;-68
2022/07/07 07:49:53;;;;;;;7.50;6.70;;;;;;;16.96;93.32;101094.19;5027174;28;20045;-68
2022/07/07 07:52:19;;;;;;;9.55;7.00;;;;;;;17.25;91.48;101090.25;5027688;28;20069;-69
2022/07/07 07:54:46;;;;;;;8.00;6.93;;;;;;;17.19;92.49;101096.00;5027047;28;20648;-69
2022/07/07 07:57:13;;;;;;;7.82;5.90;;;;;;;17.74;89.86;101089.25;5028703;28;20045;-69
2022/07/07 07:59:40;;;;;;;7.57;6.13;;;;;;;18.07;87.94;101089.31;5028035;28;20408;-70
2022/07/07 08:02:06;;;;;;;11.02;5.70;;;;;;;17.83;88.51;101085.91;5028197;28;20095;-70
2022/07/07 08:04:32;;;;;;;8.68;6.32;;;;;;;17.71;90.64;101092.13;5027044;28;20061;-69
2022/07/07 08:06:59;;;;;;;8.70;6.03;;;;;;;17.82;89.81;101092.16;5023733;28;20049;-69
2022/07/07 08:09:26;;;;;;;7.00;5.63;;;;;;;17.32;91.46;101090.66;5027029;28;20049;-70
2022/07/07 08:11:53;;;;;;;6.60;5.35;;;;;;;17.45;91.58;101092.25;5031300;28;20120;-70
2022/07/07 08:14:21;;;;;;;8.13;4.90;;;;;;;17.72;90.57;101083.22;5026886;28;20521;-69
2022/07/07 08:16:47;;;;;;;7.22;5.28;;;;;;;17.50;90.94;101086.63;5027346;28;20045;-69
2022/07/07 08:19:17;;;;;;;6.43;4.60;;;;;;;17.17;92.58;101087.31;5027880;28;20095;-69
2022/07/07 08:21:46;;;;;;;5.57;4.50;;;;;;;17.36;92.77;101082.38;5028815;28;20417;-69
2022/07/07 08:24:12;;;;;;;5.38;4.15;;;;;;;17.48;91.76;101085.88;5028492;28;20034;-69
2022/07/07 08:26:39;;;;;;;5.28;3.83;;;;;;;17.05;93.62;101085.56;5027248;28;20057;-70
2022/07/07 08:29:05;;;;;;;6.63;4.00;;;;;;;17.33;93.31;101074.63;5027301;28;20041;-69
2022/07/07 08:31:33;;;;;;;3.78;3.08;;;;;;;17.54;90.67;101080.13;5025679;28;20045;-69
2022/07/07 08:33:59;;;;;;;5.50;3.33;;;;;;;17.51;90.25;101080.38;5019434;28;20096;-69
2022/07/07 08:36:25;;;;;;;6.75;2.95;;;;;;;17.80;89.49;101084.34;5027049;28;20383;-70
2022/07/07 08:38:52;;;;;;;5.88;2.97;;;;;;;17.71;90.15;101084.19;5010839;28;20070;-70
2022/07/07 08:41:19;;;;;;;6.05;3.67;;;;;;;17.94;89.95;101088.59;5011460;28;20096;-70
2022/07/07 08:43:46;;;;;;;6.30;3.63;;;;;;;17.87;90.80;101082.91;5026743;28;20169;-69
2022/07/07 08:46:12;;;;;;;5.68;4.25;;;;;;;17.86;90.39;101089.16;5026109;28;20049;-70
2022/07/07 08:48:40;;;;;;;5.72;4.38;;;;;;;17.64;92.16;101086.47;5026712;28;20076;-69
2022/07/07 08:51:07;;;;;;;6.40;4.68;;;;;;;17.46;94.30;101091.31;5027045;28;20061;-69
2022/07/07 08:53:35;;;;;;;5.93;3.92;;;;;;;17.68;92.61;101093.22;5026114;28;20045;-69
2022/07/07 08:56:05;;;;;;;4.85;4.00;;;;;;;17.87;91.63;101087.38;5027053;28;20115;-69
2022/07/07 08:58:32;;;;;;;4.50;3.90;;;;;;;18.64;87.98;101088.41;5027249;28;20102;-69
2022/07/07 09:00:58;;;;;;;4.63;3.90;;;;;;;18.38;89.18;101091.28;5025178;28;20037;-69
2022/07/07 09:03:27;;;;;;;5.93;4.22;;;;;;;18.44;88.60;101090.78;5018490;28;20042;-70
2022/07/07 09:05:57;;;;;;;7.53;3.60;;;;;;;18.36;88.12;101087.94;5022254;28;20073;-69
2022/07/07 09:08:24;;;;;;;5.95;3.40;;;;;;;18.41;85.92;101084.88;5025627;28;20092;-69
2022/07/07 09:10:51;;;;;;;6.35;3.45;;;;;;;18.37;87.14;101084.28;5025507;28;20053;-71
2022/07/07 09:13:25;;;;;;;6.20;3.70;;;;;;;18.52;87.16;101084.91;5027341;28;20069;-70
2022/07/07 09:15:52;;;;;;;4.65;2.95;;;;;;;18.35;86.63;101088.03;5022943;28;20439;-70
2022/07/07 09:18:31;;;;;;;4.05;3.28;;;;;;;18.55;87.14;101086.50;5026193;28;20041;-69
2022/07/07 09:21:00;;;;;;;2.97;2.67;;;;;;;18.38;85.73;101088.63;5026459;28;20074;-70
2022/07/07 09:23:27;;;;;;;3.05;2.70;;;;;;;18.61;86.34;101091.31;5030580;28;20048;-71
2022/07/07 09:25:53;;;;;;;6.97;3.15;;;;;;;18.79;84.94;101088.03;5047137;28;20151;-70
2022/07/07 09:28:20;;;;;;;5.15;3.60;;;;;;;19.12;83.64;101091.56;5045434;28;20550;-70
2022/07/07 09:30:48;;;;;;;4.20;3.05;;;;;;;19.27;83.97;101090.31;5032872;28;20067;-70
2022/07/07 09:33:18;;;;;;;4.50;2.75;;;;;;;19.61;82.91;101091.91;5027822;28;20053;-70
2022/07/07 09:38:32;;;;;;;4.03;3.10;;;;;;;20.06;82.05;101089.84;5027279;28;20052;-70
2022/07/07 09:41:02;;;;;;;5.68;2.90;;;;;;;20.08;81.24;101093.19;5026210;28;20045;-70
2022/07/07 09:43:30;;;;;;;5.40;2.83;;;;;;;19.94;78.54;101098.84;5027024;28;20115;-71
2022/07/07 09:46:11;;;;;;;4.40;2.50;;;;;;;20.31;77.50;101091.25;5026167;28;20460;-71
2022/07/07 09:48:39;;;;;;;3.85;2.45;;;;;;;20.23;78.16;101091.88;5039501;28;20126;-71
2022/07/07 09:51:24;;;;;;;4.20;2.40;;;;;;;20.54;77.55;101092.75;5046145;28;20566;-71
2022/07/07 09:54:04;;;;;;;4.60;2.85;;;;;;;20.57;78.05;101092.47;5044781;28;20045;-71
2022/07/07 09:56:33;;;;;;;3.50;2.83;;;;;;;20.64;78.21;101100.78;5044613;28;20067;-72
2022/07/07 09:59:00;;;;;;;3.13;2.50;;;;;;;20.80;76.72;101087.78;5044964;28;20550;-72
2022/07/07 10:01:29;;;;;;;5.18;4.15;;;;;;;20.89;76.57;101094.94;5028702;28;20049;-72
2022/07/07 10:03:57;;;;;;;4.20;3.60;;;;;;;21.16;77.08;101094.34;5025693;28;20501;-73
2022/07/07 10:06:26;;;;;;;5.78;3.25;;;;;;;21.16;75.61;101095.19;5026301;28;20690;-73
2022/07/07 10:08:56;;;;;;;7.93;4.28;;;;;;;21.70;75.22;101101.78;5026441;28;20505;-73
2022/07/07 10:11:32;;;;;;;6.78;3.22;;;;;;;22.28;75.89;101099.88;5025097;28;20049;-74
2022/07/07 10:14:03;;;;;;;4.47;2.75;;;;;;;22.49;74.68;101096.97;5024930;28;20037;-74
2022/07/07 10:16:30;;;;;;;4.85;2.35;;;;;;;22.80;69.31;101107.25;5025073;28;20092;-73
2022/07/07 10:18:56;;;;;;;3.30;1.77;;;;;;;22.46;70.96;101106.16;5025746;28;20068;-74
2022/07/07 10:21:23;;;;;;;4.05;2.15;;;;;;;22.56;69.01;101104.25;5025632;28;20045;-73
2022/07/07 10:23:49;;;;;;;3.92;1.90;;;;;;;22.73;68.48;101100.81;5024629;28;20065;-73
2022/07/07 10:26:15;;;;;;;2.03;1.70;;;;;;;23.04;66.21;101103.19;5027511;28;20053;-73
2022/07/07 10:28:55;;;;;;;3.70;2.30;;;;;;;22.67;68.09;101104.09;5025547;28;20049;-73
2022/07/07 10:31:23;;;;;;;2.88;2.00;;;;;;;22.72;67.61;101103.66;5025864;28;20468;-73
2022/07/07 10:33:56;;;;;;;3.17;1.90;;;;;;;22.88;67.67;101097.66;5016909;28;20049;-73
2022/07/07 10:36:22;;;;;;;2.00;1.80;;;;;;;22.95;67.90;101093.41;5017923;28;20099;-73
2022/07/07 10:38:53;;;;;;;7.93;2.20;;;;;;;22.97;68.70;101105.63;5025380;28;20052;-74
2022/07/07 10:41:24;;;;;;;2.72;1.70;;;;;;;23.53;67.94;101100.03;5025698;28;20509;-74
2022/07/07 10:44:02;;;;;;;3.40;1.80;;;;;;;23.37;64.82;101099.84;5024711;28;20508;-74
2022/07/07 10:46:28;;;;;;;4.57;2.13;;;;;;;23.89;64.90;101097.31;5025947;28;20037;-74
2022/07/07 10:49:08;;;;;;;4.72;2.03;;;;;;;24.65;65.95;101088.38;5024896;28;20029;-74
2022/07/07 10:51:51;;;;;;;2.17;1.60;;;;;;;25.08;58.61;101086.56;5027838;28;20468;-75
2022/07/07 10:54:33;;;;;;;3.63;1.85;;;;;;;24.70;59.43;101087.91;5029830;28;20564;-75
2022/07/07 10:57:15;;;;;;;2.55;1.50;;;;;;;24.57;58.65;101095.56;5028342;28;20448;-74
2022/07/07 11:00:21;;;;;;;3.20;1.98;;;;;;;23.94;61.41;101087.81;5029109;28;20068;-74
2022/07/07 11:02:52;;;;;;;4.03;1.60;;;;;;;23.81;61.82;101094.56;5028777;28;20049;-75
2022/07/07 11:05:33;;;;;;;3.03;1.75;;;;;;;23.10;65.69;101082.03;5026106;28;20099;-73
2022/07/07 11:08:11;;;;;;;4.63;1.80;;;;;;;22.42;69.55;101090.53;5016681;28;20041;-73
2022/07/07 11:10:50;;;;;;;2.83;1.67;;;;;;;22.55;69.29;101091.03;5028426;28;20053;-72
2022/07/07 11:13:18;;;;;;;2.20;1.70;;;;;;;22.37;68.93;101092.81;5023421;28;20072;-71
2022/07/07 11:15:45;;;;;;;2.45;1.73;;;;;;;22.40;69.18;101095.19;5027020;28;20082;-70
2022/07/07 11:18:15;;;;;;;3.60;1.80;;;;;;;22.69;67.39;101093.25;5030152;28;20041;-71
2022/07/07 11:20:53;;;;;;;2.75;1.63;;;;;;;23.01;67.17;101090.13;5030294;28;20049;-71
2022/07/07 11:23:19;;;;;;;2.60;1.60;;;;;;;23.67;66.39;101087.94;5028875;28;20041;-71
2022/07/07 11:25:47;;;;;;;2.22;1.30;;;;;;;23.73;65.70;101090.81;5030220;28;20053;-72
2022/07/07 11:28:13;;;;;;;2.08;1.20;;;;;;;23.85;66.30;101096.78;5029930;28;20045;-72
2022/07/07 11:30:40;;;;;;;3.05;1.98;;;;;;;24.27;62.49;101102.28;5027544;28;20049;-72